Time;durP1;ratioP1;P1;durP2;ratioP2;P2;SDS_P1;SDS_P2;PMS_P1;PMS_P2;Temp;Humidity;BMP_temperature;BMP_pressure;BME280_temperature;BME280_humidity;BME280_pressure;Samples;Min_cycle;Max_cycle;Signal;HPM_P1;HPM_P2
2022/08/27 00:00:50;;;;;;;;;17.50;14.00;;;;;19.62;94.58;99003.19;6283729;20;2811832;-64
2022/08/27 00:03:19;;;;;;;;;19.00;18.00;;;;;19.64;94.88;98998.41;6277654;20;2836891;-64
2022/08/27 00:05:48;;;;;;;;;15.50;15.50;;;;;19.57;93.80;99002.84;6276750;20;2821351;-64
2022/08/27 00:08:16;;;;;;;;;15.00;15.00;;;;;19.57;93.74;99002.84;6279717;20;2805855;-65
2022/08/27 00:10:45;;;;;;;;;19.00;17.67;;;;;19.38;94.29;99010.31;6283578;20;3571136;-64
2022/08/27 00:13:14;;;;;;;;;24.50;19.00;;;;;19.39;94.49;99003.84;6280051;20;2844064;-62
2022/08/27 00:15:43;;;;;;;;;14.67;14.67;;;;;19.70;93.28;98998.63;6278947;20;3531575;-62
2022/08/27 00:18:13;;;;;;;;;20.00;16.50;;;;;19.81;92.06;98999.31;6307135;20;2837880;-62
2022/08/27 00:20:42;;;;;;;;;19.00;17.50;;;;;19.76;91.58;99002.53;6281158;20;2839929;-62
2022/08/27 00:23:11;;;;;;;;;18.00;18.00;;;;;19.75;91.39;99003.56;6282297;20;3560691;-62
2022/08/27 00:25:40;;;;;;;;;17.50;16.50;;;;;19.70;92.61;99011.41;6309382;20;2827364;-62
2022/08/27 00:28:07;;;;;;;;;15.00;15.00;;;;;19.95;90.18;99012.22;6278961;20;2493988;-62
2022/08/27 00:30:36;;;;;;;;;14.50;14.00;;;;;19.95;89.65;99010.34;6281821;20;2808592;-62
2022/08/27 00:33:06;;;;;;;;;16.00;13.00;;;;;20.13;88.52;99010.16;6280730;20;2804413;-62
2022/08/27 00:35:36;;;;;;;;;17.00;15.00;;;;;19.67;92.25;99015.31;6307687;20;2770067;-62
2022/08/27 00:38:08;;;;;;;;;16.00;14.00;;;;;19.98;89.92;99000.13;6309618;20;2811975;-62
2022/08/27 00:40:38;;;;;;;;;17.50;17.00;;;;;19.93;89.41;99006.97;6282986;20;2831575;-62
2022/08/27 00:43:07;;;;;;;;;15.00;14.00;;;;;19.94;90.73;99007.81;6272957;20;2798311;-62
2022/08/27 00:45:42;;;;;;;;;20.33;20.00;;;;;19.71;91.33;99011.22;6276837;20;2489833;-62
2022/08/27 00:48:15;;;;;;;;;17.00;14.33;;;;;20.09;89.22;99007.97;6310116;20;3548251;-61
2022/08/27 00:50:52;;;;;;;;;17.00;14.00;;;;;19.63;91.94;99018.50;6311287;20;3545144;-62
2022/08/27 00:53:28;;;;;;;;;14.33;14.33;;;;;19.52;92.72;99017.81;6309123;20;3533604;-62
2022/08/27 00:56:16;;;;;;;;;18.33;14.00;;;;;19.69;92.01;99015.13;6311574;20;3540885;-62
2022/08/27 00:58:50;;;;;;;;;15.67;15.67;;;;;19.56;92.83;99017.47;6309198;20;3551373;-62
2022/08/27 01:01:30;;;;;;;;;18.00;16.67;;;;;19.48;93.65;99011.00;6307210;20;2487850;-62
2022/08/27 01:04:05;;;;;;;;;18.50;18.50;;;;;19.61;92.65;99020.53;6304323;20;2828469;-61
2022/08/27 01:06:37;;;;;;;;;19.00;16.00;;;;;20.02;89.54;99023.31;6279275;20;2829442;-62
2022/08/27 01:09:12;;;;;;;;;19.00;16.00;;;;;20.06;88.63;99025.50;6283658;20;3566041;-62
2022/08/27 01:11:43;;;;;;;;;14.00;13.33;;;;;19.83;89.19;99027.25;6274607;20;3524209;-63
2022/08/27 01:14:12;;;;;;;;;20.67;16.67;;;;;19.65;89.98;99022.75;6309714;20;3562815;-62
2022/08/27 01:16:51;;;;;;;;;16.33;13.67;;;;;19.49;91.44;99022.75;6270682;20;3537828;-61
2022/08/27 01:19:50;;;;;;;;;18.50;18.50;;;;;19.67;90.33;99030.81;6283789;20;2483655;-61
2022/08/27 01:22:52;;;;;;;;;16.00;16.00;;;;;19.72;88.91;99028.41;6283600;20;2828464;-62
2022/08/27 01:25:23;;;;;;;;;14.50;14.50;;;;;19.59;89.22;99028.00;6281288;20;2805520;-62
2022/08/27 01:27:57;;;;;;;;;18.33;18.00;;;;;19.52;90.73;99028.69;6283319;20;3562860;-62
2022/08/27 01:30:26;;;;;;;;;17.00;17.00;;;;;19.52;89.64;99028.69;6317724;20;2489826;-62
2022/08/27 01:32:54;;;;;;;;;15.00;14.00;;;;;19.66;88.49;99034.50;6284871;20;2496164;-62
2022/08/27 01:35:24;;;;;;;;;18.50;17.50;;;;;19.31;89.61;99031.03;6283244;20;2558567;-61
2022/08/27 01:37:54;;;;;;;;;16.50;15.00;;;;;19.14;90.90;99021.13;6306786;20;2818137;-61
2022/08/27 01:40:24;;;;;;;;;20.00;17.00;;;;;19.23;90.94;99022.88;6270125;20;2498211;-62
2022/08/27 01:42:56;;;;;;;;;20.00;16.00;;;;;18.87;92.93;99023.06;6316371;20;3563798;-61
2022/08/27 01:45:35;;;;;;;;;18.00;16.50;;;;;19.03;93.36;99023.13;6275346;20;2833625;-61
2022/08/27 01:48:09;;;;;;;;;19.67;17.33;;;;;18.78;94.57;99022.19;6279330;20;2844047;-62
2022/08/27 01:50:40;;;;;;;;;20.33;20.33;;;;;18.51;96.58;99015.06;6317052;20;3577301;-62
2022/08/27 01:53:23;;;;;;;;;17.00;17.00;;;;;18.43;97.57;99020.44;6285070;20;2831696;-62
2022/08/27 01:55:53;;;;;;;;;19.00;18.50;;;;;18.96;95.27;99027.53;6283382;20;2835860;-61
2022/08/27 01:58:29;;;;;;;;;18.00;18.00;;;;;18.78;94.97;99024.91;6279818;20;2842070;-62
2022/08/27 02:01:08;;;;;;;;;16.00;15.00;;;;;18.85;93.62;99025.09;6283642;20;2491937;-62
2022/08/27 02:03:38;;;;;;;;;18.00;15.50;;;;;18.66;95.17;99020.72;6276291;20;2487910;-62
2022/08/27 02:06:10;;;;;;;;;18.00;16.00;;;;;18.50;95.67;99026.09;6280168;20;2489978;-62
2022/08/27 02:08:40;;;;;;;;;17.50;17.00;;;;;18.48;95.38;99028.97;6281739;20;2835677;-59
2022/08/27 02:11:08;;;;;;;;;18.00;18.00;;;;;18.77;93.31;99027.78;6283846;20;2834646;-60
2022/08/27 02:13:38;;;;;;;;;17.00;14.00;;;;;18.78;93.17;99030.34;6280793;20;2817021;-59
2022/08/27 02:16:07;;;;;;;;;21.00;18.67;;;;;18.78;92.93;99037.66;6286875;20;3563788;-59
2022/08/27 02:18:37;;;;;;;;;21.33;18.00;;;;;18.78;92.67;99034.94;6278277;20;2846187;-59
2022/08/27 02:21:09;;;;;;;;;15.00;15.00;;;;;18.77;91.71;99033.22;6317788;20;3541896;-59
2022/08/27 02:23:38;;;;;;;;;17.00;16.00;;;;;18.82;91.75;99031.72;6313622;20;2827338;-60
2022/08/27 02:26:06;;;;;;;;;16.00;15.00;;;;;18.63;93.04;99027.34;6282793;20;2483637;-60
2022/08/27 02:28:34;;;;;;;;;17.50;15.00;;;;;18.80;90.66;99030.16;6279149;20;2487768;-60
2022/08/27 02:31:03;;;;;;;;;19.33;18.00;;;;;18.98;89.67;99032.81;6282472;20;2491948;-59
2022/08/27 02:33:32;;;;;;;;;15.00;14.00;;;;;18.98;89.53;99038.25;6315587;20;2492059;-59
2022/08/27 02:36:01;;;;;;;;;15.50;14.00;;;;;19.02;89.14;99032.31;6286219;20;2803654;-59
2022/08/27 02:38:30;;;;;;;;;19.00;16.00;;;;;18.71;92.38;99033.84;6280697;20;2825343;-59
2022/08/27 02:40:59;;;;;;;;;21.00;19.00;;;;;18.51;93.02;99028.66;6283489;20;2829523;-59
2022/08/27 02:43:27;;;;;;;;;17.00;16.00;;;;;18.31;94.18;99032.63;6281742;20;3560722;-60
2022/08/27 02:45:56;;;;;;;;;18.33;15.67;;;;;18.18;95.39;99033.88;6281503;20;3555532;-59
2022/08/27 02:48:25;;;;;;;;;20.00;18.00;;;;;18.09;96.12;99031.25;6279251;20;2848182;-59
2022/08/27 02:50:54;;;;;;;;;18.50;18.00;;;;;18.25;95.71;99031.41;6283880;20;2824092;-59
2022/08/27 02:53:23;;;;;;;;;17.50;15.50;;;;;18.10;96.58;99027.53;6283029;20;2826465;-59
2022/08/27 02:55:51;;;;;;;;;16.50;16.50;;;;;18.09;96.75;99028.53;6279023;20;2829596;-60
2022/08/27 02:58:20;;;;;;;;;18.00;18.00;;;;;18.04;97.09;99028.19;6280165;20;2840977;-60
2022/08/27 03:00:49;;;;;;;;;16.50;16.50;;;;;17.79;98.19;99025.25;6284345;20;2835689;-59
2022/08/27 03:03:17;;;;;;;;;18.00;17.00;;;;;18.23;95.98;99021.69;6280221;20;3559623;-60
2022/08/27 03:05:46;;;;;;;;;21.00;18.33;;;;;18.05;96.06;99019.88;6286107;20;3568111;-59
2022/08/27 03:08:16;;;;;;;;;15.00;15.00;;;;;18.04;96.50;99020.88;6276264;20;2811710;-59
2022/08/27 03:10:45;;;;;;;;;18.00;18.00;;;;;18.43;95.01;99020.44;6283662;20;2839851;-59
2022/08/27 03:13:13;;;;;;;;;20.67;17.00;;;;;18.30;94.02;99025.44;6286179;20;3563919;-59
2022/08/27 03:15:42;;;;;;;;;18.00;18.00;;;;;18.59;93.59;99026.00;6280267;20;2824255;-60
2022/08/27 03:18:18;;;;;;;;;21.67;20.00;;;;;18.33;93.64;99026.00;6279879;20;2848649;-60
2022/08/27 03:20:53;;;;;;;;;23.00;20.00;;;;;18.21;95.41;99032.72;6318331;20;3576576;-59
2022/08/27 03:23:28;;;;;;;;;20.00;19.00;;;;;18.24;95.48;99020.66;6278388;20;2841970;-59
2022/08/27 03:26:02;;;;;;;;;21.00;20.00;;;;;18.15;95.57;99028.78;6314836;20;3578512;-59
2022/08/27 03:28:35;;;;;;;;;18.00;17.00;;;;;18.03;95.68;99029.19;6280446;20;2826291;-59
2022/08/27 03:31:14;;;;;;;;;19.50;18.00;;;;;18.08;95.76;99024.97;6282286;20;2835827;-60
2022/08/27 03:33:43;;;;;;;;;18.50;17.00;;;;;18.01;97.36;99023.94;6281572;20;2823199;-60
2022/08/27 03:36:11;;;;;;;;;17.67;17.67;;;;;17.80;98.08;99023.38;6284198;20;3566899;-59
2022/08/27 03:38:40;;;;;;;;;19.50;18.50;;;;;17.91;98.14;99025.88;6310827;20;2832172;-60
2022/08/27 03:41:09;;;;;;;;;23.00;21.00;;;;;18.01;98.40;99034.78;6280829;20;2846122;-60
2022/08/27 03:43:37;;;;;;;;;19.00;18.00;;;;;18.27;96.87;99026.63;6304794;20;2483583;-60
2022/08/27 03:46:08;;;;;;;;;20.00;20.00;;;;;17.99;97.82;99031.38;6281330;20;2832579;-59
2022/08/27 03:48:37;;;;;;;;;22.00;19.00;;;;;17.90;98.52;99024.16;6309538;20;2837765;-63
2022/08/27 03:51:13;;;;;;;;;22.33;19.00;;;;;17.78;99.17;99024.38;6280567;20;2496096;-63
2022/08/27 03:53:45;;;;;;;;;19.00;17.50;;;;;18.00;98.79;99024.91;6309592;20;2835726;-63
2022/08/27 03:56:15;;;;;;;;;27.67;20.00;;;;;18.32;95.24;99024.28;6282017;20;3592029;-63
2022/08/27 03:58:43;;;;;;;;;18.67;18.00;;;;;17.89;97.64;99028.75;6281658;20;3562765;-63
2022/08/27 04:01:12;;;;;;;;;19.67;16.67;;;;;17.90;97.94;99030.44;6276775;20;3566003;-63
2022/08/27 04:03:41;;;;;;;;;21.00;19.00;;;;;18.16;97.26;99035.91;6276580;20;2820436;-63
2022/08/27 04:06:10;;;;;;;;;21.00;21.00;;;;;17.86;97.86;99037.22;6278965;20;2848179;-63
2022/08/27 04:08:39;;;;;;;;;21.33;19.00;;;;;17.81;98.81;99042.25;6309588;20;3557603;-63
2022/08/27 04:11:08;;;;;;;;;20.33;20.33;;;;;17.72;99.36;99043.16;6316243;20;3572131;-63
2022/08/27 04:13:36;;;;;;;;;21.00;21.00;;;;;17.81;99.21;99042.25;6280622;20;2828374;-63
2022/08/27 04:16:06;;;;;;;;;22.00;18.00;;;;;17.92;99.38;99035.72;6277598;20;2831642;-63
2022/08/27 04:18:34;;;;;;;;;21.50;20.00;;;;;17.82;99.07;99038.50;6279464;20;2833622;-63
2022/08/27 04:21:14;;;;;;;;;26.67;22.00;;;;;17.65;100.00;99042.94;6280722;20;2852581;-63
2022/08/27 04:23:43;;;;;;;;;19.33;17.67;;;;;17.57;100.00;99042.00;6310872;20;3562936;-63
2022/08/27 04:26:13;;;;;;;;;22.67;19.00;;;;;17.88;100.00;99042.50;6311293;20;3576265;-63
2022/08/27 04:28:42;;;;;;;;;21.67;21.67;;;;;18.12;98.08;99042.69;6284048;20;3585664;-63
2022/08/27 04:31:20;;;;;;;;;25.67;23.00;;;;;18.27;96.76;99040.22;6275417;20;2840988;-63
2022/08/27 04:33:49;;;;;;;;;21.67;20.33;;;;;18.24;96.80;99036.97;6311787;20;3571082;-63
2022/08/27 04:36:20;;;;;;;;;20.50;19.50;;;;;18.18;97.22;99044.75;6274511;20;2838853;-63
2022/08/27 04:38:49;;;;;;;;;23.00;20.33;;;;;18.13;98.32;99036.22;6279066;20;3574261;-62
2022/08/27 04:41:18;;;;;;;;;21.00;17.67;;;;;18.37;97.70;99031.97;6313639;20;3554416;-63
2022/08/27 04:44:06;;;;;;;;;22.50;21.50;;;;;18.34;97.18;99043.16;6306716;20;2836742;-65
2022/08/27 04:46:39;;;;;;;;;22.00;21.67;;;;;18.59;95.98;99041.47;6278178;20;2848342;-63
2022/08/27 04:49:17;;;;;;;;;24.33;17.33;;;;;18.89;92.40;99037.38;6310337;20;2847218;-62
2022/08/27 04:51:47;;;;;;;;;19.33;19.33;;;;;18.89;93.81;99037.38;6303921;20;3576483;-63
2022/08/27 04:54:16;;;;;;;;;21.33;19.33;;;;;19.05;92.42;99040.16;6275651;20;2850368;-62
2022/08/27 04:56:49;;;;;;;;;21.33;18.67;;;;;19.84;88.49;99048.84;6306527;20;3567035;-63
2022/08/27 04:59:18;;;;;;;;;20.00;18.00;;;;;20.76;84.65;99043.97;6279803;20;2831521;-62
2022/08/27 05:01:48;;;;;;;;;17.67;16.00;;;;;20.66;82.47;99053.38;6276537;20;3562862;-63
2022/08/27 05:04:18;;;;;;;;;20.00;19.00;;;;;19.88;86.56;99044.78;6308548;20;2826348;-62
2022/08/27 05:06:48;;;;;;;;;21.00;18.00;;;;;19.99;86.48;99034.56;6268588;20;2834715;-63
2022/08/27 05:09:18;;;;;;;;;16.67;15.67;;;;;20.87;82.99;99047.34;6283417;20;3553440;-62
2022/08/27 05:11:50;;;;;;;;;15.33;14.00;;;;;20.76;83.99;99046.72;6311831;20;3534642;-62
2022/08/27 05:14:21;;;;;;;;;16.33;16.33;;;;;20.43;85.23;99036.88;6308178;20;3549280;-63
2022/08/27 05:16:50;;;;;;;;;19.00;19.00;;;;;20.35;84.66;99041.34;6305222;20;2841921;-62
2022/08/27 05:19:20;;;;;;;;;44.00;33.67;;;;;20.52;83.07;99046.75;6276732;20;3632535;-63
2022/08/27 05:21:52;;;;;;;;;24.67;19.33;;;;;20.67;83.37;99039.59;6304725;20;3584732;-63
2022/08/27 05:24:22;;;;;;;;;19.00;16.67;;;;;21.38;79.72;99047.81;6308642;20;3576311;-62
2022/08/27 05:26:51;;;;;;;;;18.50;15.50;;;;;21.27;79.41;99052.66;6272565;20;2813818;-62
2022/08/27 05:29:21;;;;;;;;;16.67;16.00;;;;;21.36;79.27;99039.78;6272627;20;3540867;-62
2022/08/27 05:31:49;;;;;;;;;17.33;17.00;;;;;21.94;78.33;99056.66;6303163;20;3565880;-62
2022/08/27 05:34:20;;;;;;;;;20.00;19.00;;;;;22.83;75.38;99054.13;6268993;20;2836780;-63
2022/08/27 05:36:53;;;;;;;;;17.33;16.33;;;;;23.52;71.14;99059.25;6270093;20;3566009;-62
2022/08/27 05:39:22;;;;;;;;;19.00;16.00;;;;;22.72;74.07;99065.53;6271447;20;2829405;-63
2022/08/27 05:41:55;;;;;;;;;16.00;16.00;;;;;22.36;75.29;99058.03;6273115;20;2824197;-62
2022/08/27 05:44:24;;;;;;;;;18.67;16.67;;;;;22.75;73.99;99060.53;6272459;20;3568004;-62
2022/08/27 05:47:09;;;;;;;;;21.00;17.00;;;;;23.10;72.56;99062.75;6270105;20;2839952;-58
2022/08/27 05:49:39;;;;;;;;;18.33;18.00;;;;;23.59;71.63;99060.19;6271488;20;2841938;-59
2022/08/27 05:52:10;;;;;;;;;20.00;16.00;;;;;23.92;68.81;99070.66;6306979;20;3573190;-57
2022/08/27 05:54:39;;;;;;;;;15.33;13.33;;;;;24.90;65.15;99071.69;6267401;20;2489847;-59
2022/08/27 05:57:08;;;;;;;;;18.00;15.00;;;;;24.59;66.02;99068.53;6300902;20;2809691;-60
2022/08/27 06:02:24;;;;;;;;;15.00;15.00;;;;;24.29;67.26;99074.16;6276475;20;3541978;-59
2022/08/27 06:04:53;;;;;;;;;16.00;13.67;;;;;25.67;61.53;99071.63;6313322;20;3540865;-59
2022/08/27 06:07:21;;;;;;;;;14.00;12.67;;;;;26.44;57.92;99081.31;6309944;20;3525406;-59
2022/08/27 06:09:50;;;;;;;;;15.33;13.67;;;;;24.84;62.92;99074.41;6312658;20;3539998;-59
2022/08/27 06:12:19;;;;;;;;;15.33;14.00;;;;;24.45;66.92;99075.81;6309846;20;3531627;-59
2022/08/27 06:14:56;;;;;;;;;14.00;13.00;;;;;26.84;59.64;99084.88;6306739;20;2799345;-59
2022/08/27 06:17:25;;;;;;;;;14.67;13.00;;;;;28.71;53.79;99081.19;6277288;20;3539893;-59
2022/08/27 06:19:53;;;;;;;;;13.00;13.00;;;;;26.73;57.22;99079.19;6282040;20;2489868;-57
2022/08/27 06:22:23;;;;;;;;;12.33;11.00;;;;;25.81;58.85;99071.47;6312702;20;2786832;-58
2022/08/27 06:24:51;;;;;;;;;13.33;13.33;;;;;26.54;57.35;99072.63;6308953;20;2483665;-59
2022/08/27 06:27:20;;;;;;;;;13.67;11.00;;;;;26.81;56.62;99082.56;6312031;20;2782745;-57
2022/08/27 06:29:48;;;;;;;;;11.00;10.00;;;;;28.43;50.55;99088.84;6307846;20;3509655;-57
2022/08/27 06:32:18;;;;;;;;;12.33;12.00;;;;;28.61;49.41;99082.53;6308406;20;3540934;-58
2022/08/27 06:34:47;;;;;;;;;12.33;10.33;;;;;29.40;48.75;99087.47;6306154;20;3513800;-58
2022/08/27 06:37:16;;;;;;;;;13.00;12.00;;;;;28.42;50.19;99094.56;6270636;20;2483613;-59
2022/08/27 06:39:44;;;;;;;;;10.67;10.00;;;;;28.54;49.64;99095.56;6307707;20;3513822;-58
2022/08/27 06:42:13;;;;;;;;;11.33;10.67;;;;;30.87;42.93;99105.59;6312304;20;2794097;-58
2022/08/27 06:44:41;;;;;;;;;12.67;11.00;;;;;28.18;47.17;99094.31;6310171;20;2790903;-58
2022/08/27 06:47:10;;;;;;;;;11.67;11.67;;;;;28.04;46.10;99101.00;6306102;20;3502402;-57
2022/08/27 06:49:41;;;;;;;;;15.00;12.00;;;;;32.43;38.21;99124.13;6312218;20;3513769;-58
2022/08/27 06:52:15;;;;;;;;;11.00;9.33;;;;;32.04;36.33;99116.44;6305371;20;3504490;-58
2022/08/27 06:54:44;;;;;;;;;9.67;9.00;;;;;34.54;32.08;99127.56;6313518;20;2768032;-58
2022/08/27 06:57:13;;;;;;;;;11.33;10.33;;;;;35.04;31.18;99133.00;6308364;20;3517941;-51
2022/08/27 06:59:43;;;;;;;;;13.00;11.67;;;;;34.60;32.20;99136.00;6307701;20;3502346;-60
2022/08/27 07:02:11;;;;;;;;;12.33;9.33;;;;;36.55;28.88;99149.06;6310089;20;2483616;-56
2022/08/27 07:04:40;;;;;;;;;11.33;11.33;;;;;31.91;35.45;99125.91;6301469;20;3513879;-57
2022/08/27 07:07:12;;;;;;;;;10.00;10.00;;;;;29.04;40.74;99114.91;6273950;20;3504417;-50
2022/08/27 07:09:55;;;;;;;;;11.00;10.00;;;;;28.62;41.84;99113.75;6272957;20;2785973;-49
2022/08/27 07:12:25;;;;;;;;;10.40;8.20;;;;;28.90;41.96;99107.75;6301578;20;2773197;-58
2022/08/27 07:14:58;;;;;;;;;9.33;9.00;;;;;28.70;43.18;99115.41;6270572;20;3482601;-60
2022/08/27 07:17:26;;;;;;;;;10.67;9.67;;;;;28.49;43.38;99111.97;6304538;20;3498200;-60
2022/08/27 07:19:55;;;;;;;;;12.00;9.33;;;;;28.76;43.73;99112.59;6302137;20;3498575;-62
2022/08/27 07:22:24;;;;;;;;;10.67;10.00;;;;;29.48;41.76;99115.66;6303025;20;3507646;-60
2022/08/27 07:24:52;;;;;;;;;12.00;11.00;;;;;35.36;30.92;99141.34;6303267;20;2786867;-60
2022/08/27 07:27:21;;;;;;;;;12.33;11.00;;;;;35.95;28.62;99146.66;6306819;20;3515877;-60
2022/08/27 07:29:50;;;;;;;;;10.00;10.00;;;;;36.50;28.61;99151.88;6298812;20;2602407;-60
2022/08/27 07:32:18;;;;;;;;;14.67;13.00;;;;;35.02;29.21;99154.75;6306575;20;3529404;-60
2022/08/27 07:34:47;;;;;;;;;15.00;12.00;;;;;30.98;37.82;99135.22;6301337;20;3534655;-59
2022/08/27 07:37:15;;;;;;;;;10.67;9.00;;;;;30.23;38.25;99133.00;6264841;20;3478179;-60
2022/08/27 07:39:44;;;;;;;;;8.33;8.33;;;;;29.36;40.21;99131.34;6309225;20;2483637;-62
2022/08/27 07:44:59;;;;;;;;;12.67;12.67;;;;;30.72;37.96;99142.06;6309600;20;2487798;-63
2022/08/27 07:47:28;;;;;;;;;10.00;10.00;;;;;30.58;38.60;99135.91;6312262;20;2779067;-61
2022/08/27 07:49:58;;;;;;;;;15.33;12.33;;;;;30.43;39.60;99141.03;6303510;20;3532743;-61
2022/08/27 07:52:26;;;;;;;;;8.00;8.00;;;;;30.67;38.80;99142.75;6302481;20;3456546;-60
2022/08/27 07:54:55;;;;;;;;;5.33;5.33;;;;;29.56;39.39;99147.69;6311898;20;2746260;-60
2022/08/27 07:57:23;;;;;;;;;11.00;10.00;;;;;30.60;37.64;99144.81;6302844;20;3502304;-60
2022/08/27 07:59:52;;;;;;;;;11.33;10.33;;;;;30.67;36.82;99148.31;6303065;20;3502374;-60
2022/08/27 08:02:21;;;;;;;;;13.00;11.67;;;;;30.35;37.69;99143.06;6278591;20;3520043;-60
2022/08/27 08:04:50;;;;;;;;;13.00;10.33;;;;;30.53;37.41;99149.63;6300720;20;3517925;-60
2022/08/27 08:07:18;;;;;;;;;14.33;11.33;;;;;30.26;39.18;99144.50;6309982;20;2798202;-61
2022/08/27 08:09:47;;;;;;;;;10.67;10.67;;;;;30.06;38.95;99141.13;6307767;20;3510898;-58
2022/08/27 08:12:16;;;;;;;;;18.33;13.00;;;;;29.77;40.78;99148.34;6302494;20;3548260;-62
2022/08/27 08:14:56;;;;;;;;;13.67;10.00;;;;;29.37;40.08;99141.34;6301358;20;2487857;-62
2022/08/27 08:17:25;;;;;;;;;8.33;8.33;;;;;29.50;39.44;99138.41;6304038;20;3472154;-62
2022/08/27 08:19:56;;;;;;;;;11.67;10.33;;;;;29.96;38.84;99142.56;6305709;20;3514939;-62
2022/08/27 08:22:46;;;;;;;;;10.67;10.67;;;;;30.92;37.14;99141.75;6273151;20;3504653;-62
2022/08/27 08:25:16;;;;;;;;;10.00;10.00;;;;;30.86;37.53;99143.56;6270998;20;2773366;-62
2022/08/27 08:27:44;;;;;;;;;10.67;10.67;;;;;30.66;37.78;99138.31;6310138;20;2792012;-59
2022/08/27 08:30:14;;;;;;;;;9.33;9.33;;;;;31.17;36.94;99135.94;6305116;20;2757994;-59
2022/08/27 08:32:42;;;;;;;;;11.00;8.00;;;;;31.28;36.74;99137.84;6312007;20;2756542;-59
2022/08/27 08:35:12;;;;;;;;;11.00;11.00;;;;;31.49;36.04;99147.50;6304503;20;3512837;-59
2022/08/27 08:37:44;;;;;;;;;10.00;10.00;;;;;31.43;35.84;99140.16;6270958;20;3510781;-59
2022/08/27 08:40:43;;;;;;;;;14.33;12.00;;;;;30.84;34.53;99141.00;6270800;20;3510756;-59
2022/08/27 08:43:40;;;;;;;;;13.33;10.33;;;;;31.24;34.60;99147.75;6300564;20;3515864;-59
2022/08/27 08:46:32;;;;;;;;;9.00;9.00;;;;;31.56;35.34;99142.66;6306397;20;3471168;-59
2022/08/27 08:49:38;;;;;;;;;11.00;9.00;;;;;31.76;34.35;99147.81;6310478;20;3479468;-59
2022/08/27 08:52:56;;;;;;;;;9.67;9.67;;;;;31.57;35.41;99146.28;6305441;20;3494026;-59
2022/08/27 08:55:43;;;;;;;;;12.00;9.33;;;;;32.17;34.84;99154.19;6296573;20;3497131;-59
2022/08/27 08:58:42;;;;;;;;;12.33;9.00;;;;;32.19;34.78;99151.19;6309808;20;3489824;-60
2022/08/27 09:01:18;;;;;;;;;9.67;9.00;;;;;32.19;34.06;99146.47;6315335;20;3489899;-59
2022/08/27 09:04:04;;;;;;;;;9.00;9.00;;;;;32.42;33.94;99150.22;6312078;20;3469005;-59
2022/08/27 09:06:51;;;;;;;;;11.00;9.67;;;;;32.53;34.66;99152.97;6316256;20;2483690;-59
2022/08/27 09:09:49;;;;;;;;;11.00;9.67;;;;;32.67;33.45;99149.84;6305447;20;3505501;-60
2022/08/27 09:12:29;;;;;;;;;10.00;8.67;;;;;32.49;34.04;99149.00;6308570;20;3488845;-61
2022/08/27 09:15:09;;;;;;;;;10.00;10.00;;;;;32.18;34.58;99139.25;6323375;20;2769024;-61
2022/08/27 09:17:41;;;;;;;;;9.67;9.67;;;;;32.62;33.69;99152.53;6319315;20;2766355;-61
2022/08/27 09:20:13;;;;;;;;;8.33;7.33;;;;;33.05;33.58;99137.16;6312731;20;3480557;-60
2022/08/27 09:23:09;;;;;;;;;11.00;11.00;;;;;32.89;32.99;99139.66;6309146;20;3513798;-60
2022/08/27 09:25:42;;;;;;;;;10.00;10.00;;;;;32.43;33.93;99140.78;6285617;20;2783687;-61
2022/08/27 09:31:19;;;;;;;;;11.33;9.33;;;;;32.78;32.60;99126.66;6318105;20;2483597;-51
2022/08/27 09:33:48;;;;;;;;;11.00;9.00;;;;;33.46;30.87;99130.22;6312866;20;3493046;-56
2022/08/27 09:36:24;;;;;;;;;8.00;8.00;;;;;33.22;31.26;99132.38;6291217;20;2739949;-51
2022/08/27 09:39:03;;;;;;;;;9.00;8.33;;;;;34.01;31.71;99122.84;6308215;20;2758890;-54
2022/08/27 09:41:47;;;;;;;;;7.67;7.67;;;;;33.53;30.09;99127.25;6325940;20;2745191;-53
2022/08/27 09:44:19;;;;;;;;;10.67;7.00;;;;;33.59;29.88;99121.50;6314134;20;3479493;-53
2022/08/27 09:46:57;;;;;;;;;7.67;7.00;;;;;33.17;29.51;99122.00;6327117;20;2750287;-56
2022/08/27 09:49:26;;;;;;;;;7.00;7.00;;;;;33.70;28.62;99118.84;6316891;20;2752449;-54
2022/08/27 09:51:56;;;;;;;;;6.33;6.33;;;;;33.50;28.09;99116.63;6316750;20;2742227;-48
2022/08/27 09:54:41;;;;;;;;;9.00;7.67;;;;;33.12;28.29;99126.66;6321406;20;2751285;-51
2022/08/27 09:57:14;;;;;;;;;7.00;6.00;;;;;33.79;28.03;99131.22;6325548;20;2733608;-59
2022/08/27 09:59:54;;;;;;;;;9.67;8.33;;;;;33.48;27.76;99124.41;6316011;20;2753484;-57
2022/08/27 10:02:26;;;;;;;;;8.00;6.00;;;;;33.23;26.91;99128.53;6323435;20;2735689;-56
2022/08/27 10:05:13;;;;;;;;;6.00;6.00;;;;;33.46;26.71;99119.06;6322657;20;2740922;-58
2022/08/27 10:08:02;;;;;;;;;8.00;6.00;;;;;34.44;27.07;99127.50;6314441;20;2729409;-59
2022/08/27 10:10:48;;;;;;;;;6.33;6.00;;;;;33.84;25.68;99123.78;6315308;20;2743044;-59
2022/08/27 10:13:35;;;;;;;;;5.00;5.00;;;;;33.61;25.58;99115.69;6327328;20;2735662;-58
2022/08/27 10:16:46;;;;;;;;;7.67;6.00;;;;;33.87;25.62;99122.41;6322478;20;2737745;-57
2022/08/27 10:19:43;;;;;;;;;8.00;8.00;;;;;34.00;25.72;99113.66;6327966;20;2750335;-59
2022/08/27 10:23:08;;;;;;;;;8.33;7.00;;;;;34.64;25.97;99115.69;6325656;20;2746089;-60
2022/08/27 10:25:59;;;;;;;;;9.33;7.00;;;;;34.30;26.57;99115.91;6319421;20;2761738;-50
2022/08/27 10:29:22;;;;;;;;;8.00;6.00;;;;;34.11;26.36;99111.00;6323256;20;2734692;-55
2022/08/27 10:32:38;;;;;;;;;9.00;7.00;;;;;33.62;26.34;99111.78;6319404;20;2742954;-59
2022/08/27 10:35:25;;;;;;;;;8.00;6.00;;;;;33.75;26.45;99114.19;6316381;20;2746154;-59
2022/08/27 10:38:49;;;;;;;;;8.33;6.67;;;;;33.63;27.14;99110.72;6320450;20;2747220;-57
2022/08/27 10:41:45;;;;;;;;;6.67;6.67;;;;;34.07;26.83;99108.75;6317222;20;2741955;-58
2022/08/27 10:45:03;;;;;;;;;6.75;5.25;;;;;34.30;26.22;99104.78;6342422;20;2615015;-58
2022/08/27 10:48:01;;;;;;;;;10.33;6.00;;;;;34.93;25.61;99112.56;6310055;20;2750333;-59
2022/08/27 10:50:53;;;;;;;;;5.00;5.00;;;;;34.75;25.45;99106.28;6317869;20;2739846;-59
2022/08/27 10:53:59;;;;;;;;;6.33;6.33;;;;;34.03;26.63;99106.69;6314936;20;2746362;-63
2022/08/27 10:56:56;;;;;;;;;6.67;6.00;;;;;33.62;26.73;99103.44;6321112;20;2748336;-63
2022/08/27 11:00:10;;;;;;;;;7.00;5.00;;;;;34.41;25.95;99105.69;6320209;20;2741048;-62
2022/08/27 11:03:03;;;;;;;;;8.33;6.67;;;;;33.82;26.08;99103.69;6317260;20;2737923;-61
2022/08/27 11:05:52;;;;;;;;;8.67;7.00;;;;;33.98;26.17;99101.91;6317187;20;2744037;-59
2022/08/27 11:08:51;;;;;;;;;12.33;7.00;;;;;34.91;25.49;99100.84;6308367;20;3487744;-59
2022/08/27 11:11:56;;;;;;;;;6.00;5.67;;;;;34.58;25.83;99091.69;6307804;20;2742136;-59
2022/08/27 11:15:32;;;;;;;;;7.00;7.00;;;;;34.55;26.23;99089.41;6315367;20;2750468;-59
2022/08/27 11:18:31;;;;;;;;;9.00;6.00;;;;;34.57;25.74;99089.97;6314971;20;2753371;-60
2022/08/27 11:21:13;;;;;;;;;9.00;7.00;;;;;34.05;25.58;99096.16;6326951;20;2750294;-59
2022/08/27 11:24:21;;;;;;;;;8.00;8.00;;;;;34.59;26.99;99090.56;6327544;20;2754405;-61
2022/08/27 11:27:03;;;;;;;;;6.33;5.00;;;;;34.19;25.58;99083.50;6319723;20;2737778;-59
2022/08/27 11:30:15;;;;;;;;;5.67;5.67;;;;;34.62;25.99;99084.44;6316613;20;2742051;-58
2022/08/27 11:33:45;;;;;;;;;9.00;7.00;;;;;34.75;24.95;99083.97;6311566;20;2744023;-55
2022/08/27 11:37:09;;;;;;;;;8.33;7.00;;;;;34.60;25.33;99074.66;6314895;20;2759637;-53
2022/08/27 11:40:21;;;;;;;;;8.33;7.00;;;;;34.53;26.22;99074.88;6317034;20;2752410;-54
2022/08/27 11:43:06;;;;;;;;;7.67;6.33;;;;;34.75;26.16;99075.63;6318213;20;2748191;-58
2022/08/27 11:46:02;;;;;;;;;6.33;6.33;;;;;35.29;25.13;99082.13;6324084;20;2740096;-59
2022/08/27 11:48:42;;;;;;;;;8.67;8.00;;;;;34.71;25.81;99077.28;6318865;20;2759771;-55
2022/08/27 11:51:33;;;;;;;;;5.00;3.00;;;;;34.53;25.54;99078.50;6313950;20;2745034;-57
2022/08/27 11:54:30;;;;;;;;;7.33;6.67;;;;;34.44;26.01;99076.44;6310932;20;2756583;-55